Terminal Aerodrome Forecast
Issued by NWS Mobile, AL

Home | Current Version | Previous Version | Text Only | Print | Product List | Glossary On
Versions: 1 2 3 4 5 6 7 8 9 10 11 12 13 14 15 16 17 18 19 20 21 22 23 24 25 26 27 28 29 30 31 32 33 34 35 36 37 38 39 40
167
FTUS44 KMOB 281727
TAFPNS
TAF
KPNS 281727Z 2818/2918 22022G29KT P6SM -RA VCTS BKN009CB BKN100
      TEMPO 2818/2822 VRB25KT 4SM TSRA SCT015 BKN025CB
     FM290200 18004KT P6SM SCT250
     FM290800 19002KT P6SM OVC007
     FM291000 00000KT 4SM BR OVC004=

USA.gov is the U.S. government's official web portal to all federal, state and local government web resources and services.